Time;durP1;ratioP1;P1;durP2;ratioP2;P2;SDS_P1;SDS_P2;PMS_P1;PMS_P2;Temp;Humidity;BMP_temperature;BMP_pressure;BME280_temperature;BME280_humidity;BME280_pressure;Samples;Min_cycle;Max_cycle;Signal;HPM_P1;HPM_P2
2022/01/09 00:01:51;;;;;;;1.10;0.22;;;4.90;99.90;;;;;;10288025;28;86351;-58
2022/01/09 00:06:51;;;;;;;0.93;0.40;;;5.00;99.90;;;;;;10289770;28;84185;-55
2022/01/09 00:11:52;;;;;;;0.32;0.20;;;4.90;99.90;;;;;;10260834;28;83258;-59
2022/01/09 00:16:53;;;;;;;0.20;0.10;;;4.90;99.90;;;;;;10247423;28;83378;-55
2022/01/09 00:21:53;;;;;;;0.28;0.10;;;4.80;99.90;;;;;;10247164;28;84136;-56
2022/01/09 00:26:54;;;;;;;0.30;0.22;;;4.90;99.90;;;;;;10244301;28;84467;-54
2022/01/09 00:31:55;;;;;;;0.98;0.20;;;4.80;99.90;;;;;;10245547;28;85038;-57
2022/01/09 00:36:56;;;;;;;0.32;0.20;;;4.80;99.90;;;;;;10246725;28;83441;-55
2022/01/09 00:41:57;;;;;;;0.00;0.00;;;4.80;99.90;;;;;;10246841;28;83457;-54
2022/01/09 00:47:00;;;;;;;0.35;0.00;;;4.80;99.90;;;;;;10246384;28;83329;-57
2022/01/09 00:52:00;;;;;;;0.10;0.05;;;4.70;99.90;;;;;;10244580;28;84474;-57
2022/01/09 00:57:01;;;;;;;0.57;0.30;;;4.70;99.90;;;;;;10244454;22;83376;-54
2022/01/09 01:02:02;;;;;;;0.20;0.10;;;4.70;99.90;;;;;;10211059;28;83439;-53
2022/01/09 01:07:03;;;;;;;0.95;0.20;;;4.60;99.90;;;;;;10205522;28;84016;-55
2022/01/09 01:12:04;;;;;;;0.57;0.10;;;4.60;99.90;;;;;;10207370;28;83334;-52
2022/01/09 01:17:05;;;;;;;0.00;0.00;;;4.60;99.90;;;;;;10206748;28;85281;-55
2022/01/09 01:22:06;;;;;;;0.20;0.00;;;4.60;99.90;;;;;;10207198;28;83213;-56
2022/01/09 01:27:08;;;;;;;0.32;0.17;;;4.60;99.90;;;;;;10206358;28;83210;-52
2022/01/09 01:32:08;;;;;;;0.17;0.17;;;4.60;99.90;;;;;;10207230;28;84220;-58
2022/01/09 01:37:09;;;;;;;0.00;0.00;;;4.60;99.90;;;;;;10206689;28;83327;-52
2022/01/09 01:42:10;;;;;;;0.10;0.10;;;4.60;99.90;;;;;;10206512;28;84152;-53
2022/01/09 01:47:12;;;;;;;0.20;0.10;;;4.70;99.90;;;;;;10204782;28;85909;-52
2022/01/09 01:52:15;;;;;;;0.15;0.10;;;4.70;99.90;;;;;;10206746;28;83361;-52
2022/01/09 01:57:17;;;;;;;0.00;0.00;;;4.80;99.90;;;;;;10205390;28;83336;-55
2022/01/09 02:02:17;;;;;;;0.47;0.15;;;4.70;99.90;;;;;;10206489;28;83436;-54
2022/01/09 02:07:18;;;;;;;0.40;0.17;;;4.70;99.90;;;;;;10205427;28;83421;-54
2022/01/09 02:12:19;;;;;;;0.30;0.10;;;4.80;99.90;;;;;;10205840;28;83987;-54
2022/01/09 02:17:21;;;;;;;0.45;0.08;;;4.80;99.90;;;;;;10203863;28;85229;-51
2022/01/09 02:22:24;;;;;;;1.00;0.20;;;4.80;99.90;;;;;;10205832;28;83284;-55
2022/01/09 02:27:25;;;;;;;0.60;0.20;;;4.80;99.90;;;;;;10203696;28;84228;-56
2022/01/09 02:32:25;;;;;;;0.30;0.20;;;4.80;99.90;;;;;;10205789;28;84143;-54
2022/01/09 02:37:26;;;;;;;0.20;0.20;;;4.70;99.90;;;;;;10204059;28;85538;-55
2022/01/09 02:42:29;;;;;;;0.38;0.20;;;4.60;99.90;;;;;;10205303;28;83233;-54
2022/01/09 02:47:33;;;;;;;0.28;0.28;;;4.60;99.90;;;;;;10203962;28;84127;-55
2022/01/09 02:52:35;;;;;;;0.40;0.28;;;4.50;99.90;;;;;;10210602;28;83214;-52
2022/01/09 02:57:37;;;;;;;0.38;0.35;;;4.50;99.90;;;;;;10210083;28;84137;-56
2022/01/09 03:02:38;;;;;;;0.60;0.28;;;4.50;99.90;;;;;;10211180;28;83234;-54
2022/01/09 03:07:40;;;;;;;0.40;0.28;;;4.50;99.90;;;;;;10210980;28;84099;-52
2022/01/09 03:12:41;;;;;;;0.88;0.30;;;4.50;99.90;;;;;;10210552;28;84022;-57
2022/01/09 03:17:43;;;;;;;0.75;0.40;;;4.40;99.90;;;;;;10209980;28;84444;-56
2022/01/09 03:22:44;;;;;;;0.65;0.50;;;4.40;99.90;;;;;;10210823;28;83412;-55
2022/01/09 03:27:48;;;;;;;1.13;0.30;;;4.40;99.90;;;;;;10208578;28;83448;-54
2022/01/09 03:32:51;;;;;;;2.17;0.85;;;4.60;99.90;;;;;;10210253;28;84115;-55
2022/01/09 03:37:52;;;;;;;1.15;1.02;;;4.60;99.90;;;;;;10209898;28;83322;-54
2022/01/09 03:42:53;;;;;;;1.35;1.00;;;4.60;99.90;;;;;;10209776;28;84108;-52
2022/01/09 03:47:54;;;;;;;1.38;0.88;;;4.70;99.90;;;;;;10209169;28;84238;-57
2022/01/09 03:52:54;;;;;;;1.35;0.90;;;4.70;99.90;;;;;;10209807;28;83225;-52
2022/01/09 03:57:55;;;;;;;2.35;1.20;;;4.80;99.90;;;;;;10208425;28;84049;-51
2022/01/09 04:02:56;;;;;;;1.73;1.10;;;4.90;99.90;;;;;;10209097;28;84153;-57
2022/01/09 04:07:56;;;;;;;1.70;1.13;;;4.90;99.90;;;;;;10208895;28;83231;-54
2022/01/09 04:12:59;;;;;;;1.92;1.67;;;4.90;99.90;;;;;;10209698;28;83226;-52
2022/01/09 04:18:01;;;;;;;2.28;1.55;;;5.00;99.90;;;;;;10222516;28;83477;-58
2022/01/09 04:23:02;;;;;;;1.83;1.50;;;5.00;99.90;;;;;;10209230;28;84304;-54
2022/01/09 04:28:02;;;;;;;2.58;1.58;;;5.10;99.90;;;;;;10215620;28;84152;-54
2022/01/09 04:33:04;;;;;;;2.92;1.85;;;5.10;99.90;;;;;;10206558;28;84096;-53
2022/01/09 04:38:05;;;;;;;2.88;1.83;;;5.20;99.90;;;;;;10213773;28;84171;-53
2022/01/09 04:43:08;;;;;;;3.70;1.52;;;5.10;99.90;;;;;;10208058;28;84116;-55
2022/01/09 04:48:11;;;;;;;2.33;1.30;;;5.20;99.90;;;;;;10221998;28;84080;-54
2022/01/09 04:53:12;;;;;;;2.22;1.30;;;5.20;99.90;;;;;;10207248;28;84658;-51
2022/01/09 04:58:12;;;;;;;3.83;1.60;;;5.20;99.90;;;;;;10206861;28;83404;-56
2022/01/09 05:03:15;;;;;;;2.33;1.35;;;5.20;99.90;;;;;;10207097;28;84156;-54
2022/01/09 05:08:15;;;;;;;3.58;1.05;;;5.20;99.90;;;;;;10206387;28;83962;-56
2022/01/09 05:13:16;;;;;;;1.50;0.93;;;5.30;99.90;;;;;;10207800;28;84474;-52
2022/01/09 05:18:16;;;;;;;2.97;0.95;;;5.30;99.90;;;;;;10206227;28;83512;-53
2022/01/09 05:23:17;;;;;;;1.55;0.80;;;5.30;99.90;;;;;;10206524;28;84115;-55
2022/01/09 05:28:18;;;;;;;8.30;1.00;;;5.30;99.90;;;;;;10204819;28;83541;-52
2022/01/09 05:33:18;;;;;;;3.33;1.10;;;5.50;99.90;;;;;;10206987;28;84088;-53
2022/01/09 05:38:20;;;;;;;3.00;0.70;;;5.50;99.90;;;;;;10205853;28;83293;-52
2022/01/09 05:43:21;;;;;;;7.82;1.60;;;5.60;99.90;;;;;;10207640;28;84286;-54
2022/01/09 05:48:22;;;;;;;6.22;1.08;;;5.70;99.90;;;;;;10206503;28;83298;-53
2022/01/09 05:53:22;;;;;;;9.30;1.02;;;5.90;99.90;;;;;;10207341;28;84164;-52
2022/01/09 05:58:23;;;;;;;7.00;1.13;;;5.90;99.90;;;;;;10206709;28;84116;-56
2022/01/09 06:03:24;;;;;;;7.40;1.23;;;6.00;99.90;;;;;;10204106;28;84189;-53
2022/01/09 06:08:25;;;;;;;4.55;0.90;;;6.00;99.90;;;;;;10203513;28;84133;-51
2022/01/09 06:13:26;;;;;;;3.40;0.57;;;6.10;99.90;;;;;;10207736;28;83332;-51
2022/01/09 06:18:26;;;;;;;5.18;0.80;;;6.10;99.90;;;;;;10208136;28;83483;-50
2022/01/09 06:23:27;;;;;;;10.32;1.58;;;6.10;99.90;;;;;;10221761;28;85331;-54
2022/01/09 06:28:27;;;;;;;10.88;1.23;;;6.10;99.90;;;;;;10225150;28;83977;-55
2022/01/09 06:33:28;;;;;;;2.88;0.45;;;6.10;99.90;;;;;;10227129;28;83425;-51
2022/01/09 06:38:29;;;;;;;4.47;1.27;;;6.10;99.90;;;;;;10225663;28;84138;-52
2022/01/09 06:43:29;;;;;;;8.18;1.20;;;6.10;99.90;;;;;;10209525;28;84128;-51
2022/01/09 06:48:30;;;;;;;6.60;0.93;;;6.10;99.90;;;;;;10209559;28;84768;-57
2022/01/09 06:53:31;;;;;;;7.60;0.90;;;6.10;99.90;;;;;;10205029;28;85297;-53
2022/01/09 06:58:31;;;;;;;0.60;0.43;;;6.10;99.90;;;;;;10293609;22;84035;-53
2022/01/09 07:03:32;;;;;;;9.55;0.70;;;6.10;99.90;;;;;;10288954;28;84154;-48
2022/01/09 07:08:35;;;;;;;5.25;0.50;;;6.00;99.90;;;;;;10286868;28;87109;-49
2022/01/09 07:13:36;;;;;;;3.97;0.73;;;6.00;99.90;;;;;;10287751;28;84253;-49
2022/01/09 07:18:37;;;;;;;2.80;1.00;;;6.00;99.90;;;;;;10288674;28;84178;-53
2022/01/09 07:23:38;;;;;;;3.58;0.93;;;6.00;99.90;;;;;;10288473;28;83627;-49
2022/01/09 07:28:38;;;;;;;5.32;0.77;;;6.00;99.90;;;;;;10287153;28;83881;-54
2022/01/09 07:33:39;;;;;;;6.55;1.00;;;6.00;99.90;;;;;;10288675;28;84125;-50
2022/01/09 07:38:39;;;;;;;7.55;0.95;;;6.00;99.90;;;;;;10287646;28;84110;-52
2022/01/09 07:43:41;;;;;;;2.67;0.70;;;5.90;99.90;;;;;;10287622;28;84208;-51
2022/01/09 07:48:41;;;;;;;6.60;1.05;;;5.90;99.90;;;;;;10286716;28;83213;-52
2022/01/09 07:53:42;;;;;;;5.88;0.90;;;5.90;99.90;;;;;;10286427;28;83567;-50
2022/01/09 07:58:42;;;;;;;4.05;0.68;;;6.00;99.90;;;;;;10286048;28;84173;-51
2022/01/09 08:03:43;;;;;;;3.10;0.55;;;6.00;99.90;;;;;;10286528;28;84178;-51
2022/01/09 08:08:44;;;;;;;4.50;0.95;;;6.00;99.90;;;;;;10286378;28;83944;-52
2022/01/09 08:13:44;;;;;;;7.03;1.00;;;6.00;99.90;;;;;;10286447;28;84132;-50
2022/01/09 08:18:45;;;;;;;8.73;1.20;;;6.00;99.90;;;;;;10284145;28;85018;-52
2022/01/09 08:23:47;;;;;;;3.42;1.42;;;6.00;99.90;;;;;;10284022;28;86375;-49
2022/01/09 08:28:48;;;;;;;8.63;1.90;;;6.10;99.90;;;;;;10273467;28;83799;-52
2022/01/09 08:33:49;;;;;;;10.88;1.17;;;6.10;99.90;;;;;;10261896;28;84077;-47
2022/01/09 08:38:49;;;;;;;5.63;1.15;;;6.10;99.90;;;;;;10280187;28;83952;-50
2022/01/09 08:43:50;;;;;;;6.80;1.52;;;6.10;99.90;;;;;;10250656;28;84194;-59
2022/01/09 08:48:51;;;;;;;10.45;1.98;;;6.10;99.90;;;;;;10238385;28;84894;-55
2022/01/09 08:53:51;;;;;;;4.97;1.00;;;6.10;99.90;;;;;;10259307;28;83267;-48
2022/01/09 08:58:53;;;;;;;3.22;1.05;;;6.10;99.90;;;;;;10292427;28;83831;-48
2022/01/09 09:03:53;;;;;;;9.98;1.30;;;6.10;99.90;;;;;;10257528;28;83765;-50
2022/01/09 09:08:54;;;;;;;3.13;0.95;;;6.20;99.90;;;;;;10244187;28;83977;-48
2022/01/09 09:13:55;;;;;;;10.88;1.40;;;6.30;99.90;;;;;;10249248;28;85478;-48
2022/01/09 09:18:55;;;;;;;3.22;1.27;;;6.30;99.90;;;;;;10260466;28;85214;-53
2022/01/09 09:23:56;;;;;;;6.40;1.60;;;6.30;99.90;;;;;;10264746;28;84132;-47
2022/01/09 09:29:00;;;;;;;5.57;1.10;;;6.30;99.90;;;;;;10281477;28;83813;-47
2022/01/09 09:34:01;;;;;;;3.50;1.08;;;6.30;99.90;;;;;;10280489;28;85758;-48
2022/01/09 09:39:07;;;;;;;5.07;1.20;;;6.30;99.90;;;;;;10279810;28;85463;-48
2022/01/09 09:44:09;;;;;;;1.25;0.82;;;6.30;99.90;;;;;;10279777;28;85228;-48
2022/01/09 09:49:10;;;;;;;4.78;1.48;;;6.20;99.90;;;;;;10279256;28;84215;-49
2022/01/09 09:54:10;;;;;;;7.82;1.42;;;6.30;99.90;;;;;;10279812;28;84321;-50
2022/01/09 09:59:11;;;;;;;5.68;1.10;;;6.40;99.90;;;;;;10265996;28;85021;-46
2022/01/09 10:04:11;;;;;;;6.03;0.80;;;6.40;99.90;;;;;;10286901;28;84171;-48
2022/01/09 10:09:13;;;;;;;8.18;0.93;;;6.40;99.90;;;;;;10286287;28;83803;-47
2022/01/09 10:14:25;;;;;;;2.40;0.82;;;6.40;99.90;;;;;;10286347;28;83599;-49
2022/01/09 10:19:43;;;;;;;3.05;1.40;;;6.40;99.90;;;;;;10285462;28;83608;-50
2022/01/09 10:24:45;;;;;;;5.07;0.90;;;6.50;99.90;;;;;;10285664;28;84034;-48
2022/01/09 10:29:50;;;;;;;3.25;1.10;;;6.70;99.90;;;;;;10284978;28;83851;-47
2022/01/09 10:35:15;;;;;;;6.32;1.20;;;6.80;99.90;;;;;;10283853;28;84260;-49
2022/01/09 10:40:29;;;;;;;6.57;1.27;;;6.90;99.90;;;;;;10274790;28;84190;-48
2022/01/09 10:45:31;;;;;;;3.78;1.42;;;6.90;99.90;;;;;;10274825;28;84491;-49
2022/01/09 10:50:36;;;;;;;2.45;1.02;;;6.90;99.90;;;;;;10282827;28;84231;-50
2022/01/09 10:55:36;;;;;;;4.18;1.63;;;7.00;99.90;;;;;;10282862;28;84228;-48
2022/01/09 11:00:37;;;;;;;4.15;0.77;;;7.10;99.90;;;;;;10283702;28;83698;-49
2022/01/09 11:05:38;;;;;;;4.35;1.00;;;6.90;99.90;;;;;;10242821;28;84330;-49
2022/01/09 11:10:39;;;;;;;4.95;1.17;;;6.90;99.90;;;;;;10245213;28;83982;-48
2022/01/09 11:16:32;;;;;;;6.25;1.02;;;6.80;99.90;;;;;;10271177;28;83912;-46
2022/01/09 11:21:02;;;;;;;8.30;1.40;;;6.70;99.90;;;;;;10282009;28;84250;-49
2022/01/09 11:26:11;;;;;;;6.18;1.20;;;6.80;99.90;;;;;;10284848;28;83669;-52
2022/01/09 11:31:27;;;;;;;2.47;0.90;;;6.80;99.90;;;;;;10318330;28;83535;-49
2022/01/09 11:37:00;;;;;;;5.28;1.25;;;6.80;99.90;;;;;;10325054;28;84096;-53
2022/01/09 11:42:13;;;;;;;2.35;1.25;;;7.00;99.90;;;;;;10325755;28;84088;-50
2022/01/09 11:47:14;;;;;;;5.78;1.50;;;7.10;99.90;;;;;;10275219;28;86177;-50
2022/01/09 11:52:14;;;;;;;5.50;1.60;;;7.20;99.90;;;;;;10310975;28;84273;-51
2022/01/09 11:57:33;;;;;;;5.15;1.65;;;7.10;99.90;;;;;;10282771;28;84075;-48
2022/01/09 12:02:35;;;;;;;4.65;1.58;;;7.00;99.90;;;;;;10288922;28;84274;-48
2022/01/09 12:07:36;;;;;;;3.88;1.17;;;7.10;99.90;;;;;;10256876;28;83745;-50
2022/01/09 12:12:37;;;;;;;4.22;1.10;;;7.30;99.90;;;;;;10283280;28;83831;-48
2022/01/09 12:17:40;;;;;;;2.70;1.42;;;7.40;99.90;;;;;;10288538;28;84006;-53
2022/01/09 12:22:45;;;;;;;6.57;1.25;;;7.50;99.90;;;;;;10319692;28;83280;-48
2022/01/09 12:27:48;;;;;;;2.70;1.30;;;7.50;99.90;;;;;;10284228;28;83885;-46
2022/01/09 12:32:48;;;;;;;3.00;1.10;;;7.40;99.90;;;;;;10271345;28;84995;-48
2022/01/09 12:37:55;;;;;;;2.10;1.00;;;7.30;99.90;;;;;;10274721;28;83899;-49
2022/01/09 12:42:58;;;;;;;4.72;1.30;;;7.50;99.90;;;;;;10281512;28;83586;-48
2022/01/09 12:48:01;;;;;;;3.15;1.10;;;7.60;99.90;;;;;;10265699;28;84230;-49
2022/01/09 12:53:21;;;;;;;1.90;0.90;;;7.40;99.90;;;;;;10242198;28;86461;-48
2022/01/09 12:58:27;;;;;;;4.78;1.17;;;7.30;99.90;;;;;;10259136;28;83841;-49
2022/01/09 13:03:30;;;;;;;3.20;1.25;;;7.30;99.90;;;;;;10261899;28;84009;-48
2022/01/09 13:08:31;;;;;;;9.30;1.40;;;7.40;99.90;;;;;;10256989;28;86318;-47
2022/01/09 13:13:33;;;;;;;7.35;1.27;;;7.50;99.90;;;;;;10265046;28;84389;-46
2022/01/09 13:18:35;;;;;;;12.20;1.80;;;7.50;99.90;;;;;;10281109;28;83812;-46
2022/01/09 13:23:50;;;;;;;4.10;0.80;;;7.50;99.90;;;;;;10290610;28;83727;-49
2022/01/09 13:28:52;;;;;;;6.50;0.90;;;7.30;99.90;;;;;;10268701;28;84231;-50
2022/01/09 13:33:57;;;;;;;3.22;1.23;;;7.20;99.90;;;;;;10239099;28;86335;-47
2022/01/09 13:38:59;;;;;;;7.68;1.25;;;7.30;99.90;;;;;;10240718;28;83957;-52
2022/01/09 13:44:01;;;;;;;3.38;0.82;;;7.30;99.90;;;;;;10239697;28;84286;-49
2022/01/09 13:49:11;;;;;;;2.15;1.45;;;7.30;99.90;;;;;;10257625;28;84159;-50
2022/01/09 13:54:15;;;;;;;5.22;1.05;;;7.20;99.90;;;;;;10265563;28;84330;-52
2022/01/09 13:59:15;;;;;;;8.18;1.58;;;7.20;99.90;;;;;;10277810;28;86108;-49
2022/01/09 14:04:20;;;;;;;4.05;1.05;;;7.30;99.90;;;;;;10278915;28;85106;-51
2022/01/09 14:09:30;;;;;;;3.05;1.48;;;7.40;99.90;;;;;;10281018;28;83373;-48
2022/01/09 14:14:33;;;;;;;4.30;1.20;;;7.40;99.90;;;;;;10282054;28;84033;-49
2022/01/09 14:19:45;;;;;;;7.72;1.75;;;7.50;99.90;;;;;;10281392;28;84258;-48
2022/01/09 14:25:01;;;;;;;5.22;1.55;;;7.40;99.90;;;;;;10244986;28;85171;-50
2022/01/09 14:30:24;;;;;;;4.70;1.00;;;7.10;99.90;;;;;;10287429;28;84064;-48
2022/01/09 14:35:29;;;;;;;3.22;0.70;;;6.80;99.90;;;;;;10278105;28;85349;-50
2022/01/09 14:40:32;;;;;;;1.35;0.57;;;6.70;99.90;;;;;;10238060;28;84205;-47
2022/01/09 14:45:32;;;;;;;0.60;0.60;;;6.60;99.90;;;;;;10255344;28;85274;-56
2022/01/09 14:50:33;;;;;;;1.77;0.70;;;6.50;99.90;;;;;;10251793;28;83475;-56
2022/01/09 14:55:34;;;;;;;4.57;1.00;;;6.40;99.90;;;;;;10281330;28;84415;-54
2022/01/09 15:00:35;;;;;;;1.58;0.77;;;6.30;99.90;;;;;;10278847;28;83419;-55
2022/01/09 15:05:41;;;;;;;0.85;0.65;;;6.20;99.90;;;;;;10259140;28;84110;-52
2022/01/09 15:10:43;;;;;;;3.75;1.15;;;6.00;99.90;;;;;;10280768;28;85243;-54
2022/01/09 15:15:45;;;;;;;1.83;0.90;;;6.00;99.90;;;;;;10270467;28;83925;-53
2022/01/09 15:20:45;;;;;;;4.75;1.08;;;5.90;99.90;;;;;;10268143;22;83513;-51
2022/01/09 15:25:47;;;;;;;6.28;1.65;;;5.80;99.90;;;;;;10248884;28;84108;-53
2022/01/09 15:30:48;;;;;;;2.45;0.98;;;5.70;99.90;;;;;;10244763;28;84567;-56
2022/01/09 15:35:49;;;;;;;1.63;0.75;;;5.70;99.90;;;;;;10284091;28;83456;-52
2022/01/09 15:40:50;;;;;;;4.88;1.10;;;5.70;99.90;;;;;;10266640;28;83257;-54
2022/01/09 15:45:52;;;;;;;3.92;1.20;;;5.60;99.90;;;;;;10243732;28;84092;-53
2022/01/09 15:50:54;;;;;;;4.22;1.70;;;5.50;99.90;;;;;;10270468;28;83417;-53
2022/01/09 15:55:55;;;;;;;5.20;1.58;;;5.40;99.90;;;;;;10254444;28;85762;-58
2022/01/09 16:00:55;;;;;;;2.97;1.13;;;5.40;99.90;;;;;;10245371;28;84108;-57
2022/01/09 16:05:56;;;;;;;3.53;1.50;;;5.40;99.90;;;;;;10272690;28;83741;-51
2022/01/09 16:10:57;;;;;;;3.75;1.55;;;5.40;99.90;;;;;;10288249;28;84975;-54
2022/01/09 16:15:59;;;;;;;3.30;1.38;;;5.40;99.90;;;;;;10255099;28;83545;-52
2022/01/09 16:20:59;;;;;;;2.63;1.30;;;5.30;99.90;;;;;;10250706;28;83425;-51
2022/01/09 16:26:00;;;;;;;2.15;1.52;;;5.30;99.90;;;;;;10256693;28;83997;-53
2022/01/09 16:31:01;;;;;;;2.28;1.60;;;5.40;99.90;;;;;;10250174;28;83998;-56
2022/01/09 16:36:13;;;;;;;3.92;1.45;;;5.30;99.90;;;;;;10267421;28;84175;-52
2022/01/09 16:41:16;;;;;;;3.47;1.67;;;5.20;99.90;;;;;;10280062;28;83535;-56
2022/01/09 16:46:17;;;;;;;2.65;1.77;;;5.20;99.90;;;;;;10245211;28;84222;-53
2022/01/09 16:51:18;;;;;;;6.78;2.15;;;5.10;99.90;;;;;;10257140;28;84062;-59
2022/01/09 16:56:19;;;;;;;4.43;1.67;;;5.20;99.90;;;;;;10247991;28;84571;-55
2022/01/09 17:01:21;;;;;;;4.75;1.63;;;5.20;99.90;;;;;;10241580;28;84497;-55
2022/01/09 17:06:22;;;;;;;2.33;1.55;;;5.30;99.90;;;;;;10254003;28;83408;-53
2022/01/09 17:11:23;;;;;;;4.32;2.50;;;5.30;99.90;;;;;;10241537;28;84443;-58
2022/01/09 17:16:24;;;;;;;7.57;3.20;;;5.40;99.90;;;;;;10243616;28;83763;-56
2022/01/09 17:21:24;;;;;;;5.15;1.90;;;5.50;99.90;;;;;;10241122;28;83311;-57
2022/01/09 17:26:25;;;;;;;7.22;3.42;;;5.40;99.90;;;;;;10255601;28;85781;-59
2022/01/09 17:31:27;;;;;;;8.90;3.53;;;5.50;99.90;;;;;;10239735;28;84290;-57
2022/01/09 17:36:28;;;;;;;6.47;2.67;;;5.50;99.90;;;;;;10239740;28;84077;-55
2022/01/09 17:41:29;;;;;;;7.05;4.05;;;5.50;99.90;;;;;;10241370;28;83192;-56
2022/01/09 17:46:30;;;;;;;4.03;1.80;;;5.50;99.90;;;;;;10239836;28;84365;-55
2022/01/09 17:51:31;;;;;;;9.57;2.28;;;5.60;99.90;;;;;;10241031;28;83342;-58
2022/01/09 17:56:32;;;;;;;5.47;2.17;;;5.50;99.90;;;;;;10241409;28;84095;-55
2022/01/09 18:01:32;;;;;;;5.95;2.42;;;5.60;99.90;;;;;;10241076;28;83419;-57
2022/01/09 18:06:33;;;;;;;5.15;2.33;;;5.70;99.90;;;;;;10240941;28;84117;-57
2022/01/09 18:11:34;;;;;;;8.50;3.17;;;5.60;99.90;;;;;;10240978;28;84103;-57
2022/01/09 18:16:35;;;;;;;4.95;2.38;;;5.70;99.90;;;;;;10240297;28;84075;-54
2022/01/09 18:21:36;;;;;;;8.93;2.15;;;5.60;99.90;;;;;;10245926;28;83788;-56
2022/01/09 18:26:37;;;;;;;8.65;2.60;;;5.60;99.90;;;;;;10247437;28;83614;-58
2022/01/09 18:31:38;;;;;;;3.67;2.80;;;5.50;99.90;;;;;;10248554;28;84112;-54
2022/01/09 18:36:40;;;;;;;4.15;2.75;;;5.50;99.90;;;;;;10248217;28;84217;-56
2022/01/09 18:41:45;;;;;;;4.45;2.50;;;5.50;99.90;;;;;;10245937;28;85111;-57
2022/01/09 18:46:46;;;;;;;8.30;3.40;;;5.40;99.90;;;;;;10241621;28;84331;-57
2022/01/09 18:51:47;;;;;;;6.07;2.38;;;5.30;99.90;;;;;;10226996;28;83322;-54
2022/01/09 18:56:48;;;;;;;6.68;2.53;;;5.20;99.90;;;;;;10244895;28;84129;-56
2022/01/09 19:01:49;;;;;;;6.43;2.75;;;5.10;99.90;;;;;;10222048;28;84177;-63
2022/01/09 19:06:50;;;;;;;8.35;3.25;;;5.10;99.90;;;;;;10219409;28;83624;-54
2022/01/09 19:11:50;;;;;;;6.80;2.90;;;5.20;99.90;;;;;;10235338;28;84065;-53
2022/01/09 19:16:51;;;;;;;9.18;3.20;;;5.30;99.90;;;;;;10242547;28;84053;-51
2022/01/09 19:21:52;;;;;;;8.75;3.33;;;5.40;99.90;;;;;;10226908;28;84122;-54
2022/01/09 19:26:54;;;;;;;6.78;2.70;;;5.40;99.90;;;;;;10240389;28;83320;-52
2022/01/09 19:31:56;;;;;;;6.25;3.10;;;5.30;99.90;;;;;;10233326;28;84566;-54
2022/01/09 19:36:58;;;;;;;7.00;2.97;;;5.30;99.90;;;;;;10216795;28;83929;-50
2022/01/09 19:41:59;;;;;;;7.57;3.03;;;5.40;99.90;;;;;;10223658;28;84264;-55
2022/01/09 19:47:00;;;;;;;4.85;3.38;;;5.40;99.90;;;;;;10222773;28;84187;-54
2022/01/09 19:52:02;;;;;;;7.57;2.78;;;5.40;99.90;;;;;;10230793;28;83521;-54
2022/01/09 19:57:03;;;;;;;10.40;3.40;;;5.30;99.90;;;;;;10246078;28;83553;-55
2022/01/09 20:02:05;;;;;;;8.63;3.20;;;5.40;99.90;;;;;;10243730;28;84173;-51
2022/01/09 20:07:06;;;;;;;8.45;3.42;;;5.40;99.90;;;;;;10240812;28;85233;-53
2022/01/09 20:12:07;;;;;;;7.47;3.00;;;5.40;99.90;;;;;;10219562;28;83641;-52
2022/01/09 20:17:08;;;;;;;9.93;3.08;;;5.40;99.90;;;;;;10238716;28;83494;-51
2022/01/09 20:22:09;;;;;;;9.50;3.33;;;5.40;99.90;;;;;;10243900;28;84025;-54
2022/01/09 20:27:09;;;;;;;6.22;3.17;;;5.30;99.90;;;;;;10248468;28;83245;-54
2022/01/09 20:32:10;;;;;;;11.93;3.42;;;5.40;99.90;;;;;;10248781;28;83649;-56
2022/01/09 20:37:11;;;;;;;6.50;2.72;;;5.30;99.90;;;;;;10248676;28;83240;-54
2022/01/09 20:42:12;;;;;;;9.60;2.90;;;5.20;99.90;;;;;;10247567;28;84035;-53
2022/01/09 20:47:13;;;;;;;9.98;3.28;;;5.20;99.90;;;;;;10244595;28;86261;-51
2022/01/09 20:52:14;;;;;;;4.72;2.40;;;5.20;99.90;;;;;;10255692;28;83542;-53
2022/01/09 20:57:18;;;;;;;12.80;3.20;;;5.10;99.90;;;;;;10242110;28;84046;-53
2022/01/09 21:02:19;;;;;;;5.68;2.83;;;5.20;99.90;;;;;;10247706;28;84071;-51
2022/01/09 21:07:20;;;;;;;5.43;3.17;;;5.30;99.90;;;;;;10247485;28;84274;-53
2022/01/09 21:12:20;;;;;;;8.48;3.38;;;5.20;99.90;;;;;;10248135;28;83470;-54
2022/01/09 21:17:21;;;;;;;13.55;3.95;;;5.30;99.90;;;;;;10263879;22;84232;-50
2022/01/09 21:22:22;;;;;;;10.25;3.15;;;5.30;99.90;;;;;;10299487;28;87180;-50
2022/01/09 21:27:23;;;;;;;6.35;2.45;;;5.30;99.90;;;;;;10265765;28;85645;-55
2022/01/09 21:32:23;;;;;;;8.98;2.90;;;5.20;99.90;;;;;;10284200;28;84137;-56
2022/01/09 21:37:24;;;;;;;10.02;2.78;;;5.30;99.90;;;;;;10261242;28;84254;-49
2022/01/09 21:42:26;;;;;;;5.47;2.58;;;5.20;99.90;;;;;;10267492;28;84914;-53
2022/01/09 21:47:27;;;;;;;7.10;2.97;;;5.20;99.90;;;;;;10266122;28;83485;-55
2022/01/09 21:52:28;;;;;;;8.65;2.50;;;5.20;99.90;;;;;;10258655;28;83482;-50
2022/01/09 21:57:28;;;;;;;6.50;2.58;;;5.10;99.90;;;;;;10267355;28;83777;-50
2022/01/09 22:02:29;;;;;;;7.43;2.60;;;5.10;99.90;;;;;;10260459;28;83638;-56
2022/01/09 22:07:31;;;;;;;5.90;2.80;;;5.00;99.90;;;;;;10255656;28;83524;-51
2022/01/09 22:12:31;;;;;;;10.02;3.15;;;5.00;99.90;;;;;;10254820;28;83347;-55
2022/01/09 22:17:32;;;;;;;9.50;2.92;;;4.90;99.90;;;;;;10252508;28;85288;-54
2022/01/09 22:22:33;;;;;;;5.70;3.00;;;4.80;99.90;;;;;;10294122;28;83325;-48
2022/01/09 22:27:34;;;;;;;10.02;3.08;;;4.80;99.90;;;;;;10292945;28;84080;-51
2022/01/09 22:32:34;;;;;;;7.40;3.15;;;4.80;99.90;;;;;;10293077;28;84068;-56
2022/01/09 22:37:35;;;;;;;4.97;2.53;;;4.80;99.90;;;;;;10291589;28;85164;-52
2022/01/09 22:42:36;;;;;;;5.55;2.85;;;4.80;99.90;;;;;;10293289;28;84206;-54
2022/01/09 22:47:38;;;;;;;6.88;2.72;;;4.70;99.90;;;;;;10254341;28;84574;-57
2022/01/09 22:52:39;;;;;;;5.22;2.63;;;4.60;99.90;;;;;;10256211;28;85789;-49
2022/01/09 22:57:41;;;;;;;8.70;3.13;;;4.60;99.90;;;;;;10253724;28;84179;-54
2022/01/09 23:02:42;;;;;;;10.15;2.47;;;4.40;99.90;;;;;;10251440;28;83296;-55
2022/01/09 23:07:46;;;;;;;13.07;3.42;;;4.50;99.90;;;;;;10250394;28;84123;-52
2022/01/09 23:12:47;;;;;;;6.20;2.97;;;4.30;99.90;;;;;;10251530;28;84229;-53
2022/01/09 23:17:47;;;;;;;6.57;2.60;;;4.30;99.90;;;;;;10282442;28;85253;-54
2022/01/09 23:22:53;;;;;;;7.32;2.85;;;4.20;99.90;;;;;;10250932;28;83861;-53
2022/01/09 23:27:56;;;;;;;9.07;3.50;;;4.20;99.90;;;;;;10248819;28;85226;-51
2022/01/09 23:32:57;;;;;;;13.15;3.63;;;4.20;99.90;;;;;;10250384;28;83223;-51
2022/01/09 23:37:58;;;;;;;5.63;2.83;;;4.20;99.90;;;;;;10249110;28;83641;-53
2022/01/09 23:42:58;;;;;;;9.85;3.38;;;4.30;99.90;;;;;;10249177;28;84608;-53
2022/01/09 23:48:04;;;;;;;13.13;3.40;;;4.20;99.90;;;;;;10264715;28;86113;-52
2022/01/09 23:53:07;;;;;;;7.75;2.90;;;4.20;99.90;;;;;;10251039;28;83441;-52
2022/01/09 23:58:10;;;;;;;9.60;2.92;;;4.10;99.90;;;;;;10283556;28;84233;-50
